Time;durP1;ratioP1;P1;durP2;ratioP2;P2;SDS_P1;SDS_P2;PMS_P1;PMS_P2;Temp;Humidity;BMP_temperature;BMP_pressure;BME280_temperature;BME280_humidity;BME280_pressure;Samples;Min_cycle;Max_cycle;Signal;HPM_P1;HPM_P2
2022/03/23 00:01:52;;;;;;;8.53;6.10;;;3.60;55.90;;;;;;5002707;28;20219;-87
2022/03/23 00:04:19;;;;;;;8.40;6.10;;;3.60;56.20;;;;;;4998837;28;20743;-86
2022/03/23 00:06:47;;;;;;;11.27;6.30;;;3.50;56.80;;;;;;5001712;28;20207;-86
2022/03/23 00:09:14;;;;;;;12.00;6.20;;;3.50;57.20;;;;;;5005164;28;20204;-86
2022/03/23 00:11:42;;;;;;;11.03;6.10;;;3.70;56.90;;;;;;5002213;28;20203;-86
2022/03/23 00:14:10;;;;;;;9.63;5.60;;;3.80;56.60;;;;;;5003866;28;20286;-86
2022/03/23 00:16:39;;;;;;;8.83;6.33;;;3.90;56.20;;;;;;5001606;28;20322;-86
2022/03/23 00:19:08;;;;;;;8.80;5.63;;;3.80;55.50;;;;;;5001782;28;20242;-86
2022/03/23 00:21:35;;;;;;;10.70;6.07;;;3.70;56.40;;;;;;5002857;28;20215;-86
2022/03/23 00:24:03;;;;;;;8.60;5.93;;;3.70;56.40;;;;;;5002013;28;20339;-88
2022/03/23 00:26:30;;;;;;;10.83;5.63;;;3.70;56.30;;;;;;4999762;28;20746;-86
2022/03/23 00:28:57;;;;;;;8.63;5.90;;;3.60;57.00;;;;;;4998123;28;20243;-86
2022/03/23 00:31:26;;;;;;;8.50;5.70;;;3.60;57.00;;;;;;4996172;28;20200;-85
2022/03/23 00:33:54;;;;;;;9.07;6.00;;;3.60;57.50;;;;;;4994482;28;20223;-88
2022/03/23 00:36:22;;;;;;;10.50;6.10;;;3.50;57.40;;;;;;4999110;28;20199;-86
2022/03/23 00:38:53;;;;;;;10.57;6.03;;;3.50;58.40;;;;;;4999312;28;20219;-86
2022/03/23 00:41:21;;;;;;;10.13;6.30;;;3.50;56.90;;;;;;5002045;28;20655;-85
2022/03/23 00:43:48;;;;;;;6.97;5.80;;;3.40;58.00;;;;;;5001181;28;21674;-86
2022/03/23 00:46:17;;;;;;;10.63;6.10;;;3.40;58.70;;;;;;4995507;28;20662;-86
2022/03/23 00:48:45;;;;;;;11.67;6.37;;;3.40;59.40;;;;;;5004603;28;20223;-86
2022/03/23 00:51:13;;;;;;;10.53;6.03;;;3.40;59.80;;;;;;5002218;28;20551;-90
2022/03/23 00:53:40;;;;;;;7.37;5.87;;;3.30;59.30;;;;;;4999402;28;20283;-86
2022/03/23 00:56:11;;;;;;;9.27;6.40;;;3.20;59.10;;;;;;5000912;28;20738;-86
2022/03/23 00:58:39;;;;;;;8.00;5.87;;;3.20;60.80;;;;;;5006304;28;20249;-86
2022/03/23 01:01:06;;;;;;;9.83;6.13;;;3.20;60.70;;;;;;5004264;28;20279;-86
2022/03/23 01:03:34;;;;;;;9.67;6.10;;;3.10;61.30;;;;;;5005091;28;20315;-86
2022/03/23 01:06:04;;;;;;;12.00;5.77;;;3.10;61.80;;;;;;5005898;28;20200;-86
2022/03/23 01:08:31;;;;;;;7.93;5.30;;;3.00;62.40;;;;;;5009878;28;20254;-86
2022/03/23 01:11:01;;;;;;;8.90;5.90;;;3.00;62.30;;;;;;5006789;28;20207;-85
2022/03/23 01:13:32;;;;;;;8.60;5.87;;;3.00;62.50;;;;;;5007819;28;20243;-86
2022/03/23 01:16:04;;;;;;;7.47;5.23;;;2.90;63.30;;;;;;5001983;28;20242;-86
2022/03/23 01:18:31;;;;;;;10.23;5.83;;;2.90;63.30;;;;;;5004150;28;20231;-86
2022/03/23 01:21:00;;;;;;;7.60;5.43;;;3.10;64.10;;;;;;4998710;28;20211;-86
2022/03/23 01:23:29;;;;;;;13.07;6.53;;;3.10;61.80;;;;;;5003770;28;20674;-86
2022/03/23 01:25:57;;;;;;;7.77;5.90;;;3.20;62.70;;;;;;4990668;28;20211;-86
2022/03/23 01:28:24;;;;;;;9.87;5.50;;;3.10;61.70;;;;;;5002766;28;20231;-86
2022/03/23 01:30:52;;;;;;;8.20;6.10;;;3.10;61.10;;;;;;4998576;28;20196;-86
2022/03/23 01:33:20;;;;;;;8.87;6.10;;;3.10;61.40;;;;;;5006127;28;20251;-85
2022/03/23 01:36:01;;;;;;;14.10;7.07;;;3.10;61.70;;;;;;5004513;28;20239;-86
2022/03/23 01:38:30;;;;;;;11.70;7.67;;;3.10;61.20;;;;;;4998306;28;20315;-86
2022/03/23 01:40:57;;;;;;;14.67;7.30;;;3.00;61.80;;;;;;4997715;28;20199;-86
2022/03/23 01:43:27;;;;;;;16.80;8.03;;;3.00;62.60;;;;;;4995981;28;20331;-86
2022/03/23 01:45:54;;;;;;;15.10;7.70;;;2.90;62.20;;;;;;5007492;28;20192;-86
2022/03/23 01:48:21;;;;;;;15.77;8.30;;;2.80;63.50;;;;;;5002895;28;20247;-86
2022/03/23 01:50:52;;;;;;;13.10;6.87;;;2.70;65.60;;;;;;5008358;28;20208;-86
2022/03/23 01:53:19;;;;;;;11.97;6.37;;;2.70;65.60;;;;;;5000252;28;20280;-86
2022/03/23 01:55:48;;;;;;;10.87;5.97;;;2.70;67.00;;;;;;5005669;28;20211;-86
2022/03/23 01:58:15;;;;;;;11.80;6.63;;;2.60;67.20;;;;;;5004016;28;20250;-86
2022/03/23 02:00:49;;;;;;;10.80;6.30;;;2.60;67.20;;;;;;5001440;28;20210;-86
2022/03/23 02:03:18;;;;;;;8.47;5.90;;;2.40;67.00;;;;;;4992770;28;20240;-87
2022/03/23 02:05:46;;;;;;;9.13;5.40;;;2.50;68.60;;;;;;5005771;28;20321;-86
2022/03/23 02:08:15;;;;;;;9.80;6.13;;;2.50;67.10;;;;;;5012645;28;20314;-87
2022/03/23 02:10:42;;;;;;;9.30;6.23;;;2.50;67.20;;;;;;5019527;28;20211;-86
2022/03/23 02:13:23;;;;;;;8.83;5.77;;;2.60;67.20;;;;;;5007642;28;20220;-86
2022/03/23 02:15:51;;;;;;;9.13;5.90;;;2.60;67.20;;;;;;5004628;28;20196;-86
2022/03/23 02:18:20;;;;;;;8.03;5.67;;;2.60;67.20;;;;;;5005909;28;20227;-88
2022/03/23 02:20:47;;;;;;;7.57;5.70;;;2.60;67.20;;;;;;5009046;28;20643;-86
2022/03/23 02:23:19;;;;;;;8.47;5.80;;;2.60;67.20;;;;;;5002989;28;20291;-86
2022/03/23 02:25:50;;;;;;;7.80;5.90;;;2.60;67.20;;;;;;5003402;28;20210;-87
2022/03/23 02:28:18;;;;;;;7.97;6.10;;;2.60;67.20;;;;;;5008058;28;20263;-86
2022/03/23 02:30:45;;;;;;;9.33;6.33;;;2.60;67.20;;;;;;5003529;28;20211;-86
2022/03/23 02:33:12;;;;;;;10.43;6.77;;;2.50;67.10;;;;;;5008747;28;20227;-86
2022/03/23 02:35:39;;;;;;;11.20;6.33;;;2.50;67.10;;;;;;5013398;28;20255;-86
2022/03/23 02:38:07;;;;;;;8.27;5.90;;;2.50;67.10;;;;;;5009203;28;20899;-86
2022/03/23 02:40:36;;;;;;;8.93;6.27;;;2.40;67.00;;;;;;5003451;28;20223;-85
2022/03/23 02:43:04;;;;;;;7.50;5.57;;;2.40;67.10;;;;;;5007820;28;20253;-86
2022/03/23 02:45:31;;;;;;;10.10;5.97;;;2.40;67.10;;;;;;5010112;28;20289;-86
2022/03/23 02:47:58;;;;;;;8.20;5.90;;;2.30;69.40;;;;;;5002707;28;20247;-86
2022/03/23 02:50:26;;;;;;;7.70;6.23;;;2.10;71.10;;;;;;4998390;28;20215;-86
2022/03/23 03:04:14;;;;;;;8.50;5.67;;;2.10;71.50;;;;;;5008723;28;20219;-85
2022/03/23 03:06:42;;;;;;;9.20;6.13;;;2.20;73.80;;;;;;5002800;28;20213;-86
2022/03/23 03:09:09;;;;;;;10.73;6.00;;;2.20;73.10;;;;;;5006027;28;20823;-86
2022/03/23 03:11:38;;;;;;;10.73;6.80;;;2.10;72.60;;;;;;5006209;28;20222;-85
2022/03/23 03:14:06;;;;;;;10.33;6.00;;;2.10;73.40;;;;;;5006390;28;20239;-86
2022/03/23 03:16:33;;;;;;;9.77;6.10;;;2.00;74.50;;;;;;5006541;28;20242;-88
2022/03/23 03:19:00;;;;;;;7.90;6.13;;;2.00;74.00;;;;;;5009431;28;20243;-86
2022/03/23 03:21:29;;;;;;;8.43;6.03;;;2.10;73.50;;;;;;4998739;28;20250;-86
2022/03/23 03:23:56;;;;;;;7.17;5.70;;;2.00;73.50;;;;;;5003266;28;20258;-85
2022/03/23 03:26:23;;;;;;;10.70;6.23;;;2.00;73.20;;;;;;4996037;28;20219;-86
2022/03/23 03:28:52;;;;;;;9.63;6.50;;;1.90;74.10;;;;;;5004281;28;20250;-86
2022/03/23 03:31:19;;;;;;;9.23;6.10;;;1.70;75.10;;;;;;5007329;28;20199;-85
2022/03/23 03:33:47;;;;;;;7.77;5.80;;;1.80;75.90;;;;;;5006615;28;20223;-86
2022/03/23 03:36:15;;;;;;;8.63;5.83;;;1.80;75.60;;;;;;5005591;28;20226;-86
2022/03/23 03:38:43;;;;;;;7.97;5.93;;;1.90;75.10;;;;;;5004369;28;20314;-86
2022/03/23 03:41:11;;;;;;;10.50;6.03;;;2.00;74.30;;;;;;5009444;28;20734;-86
2022/03/23 03:43:39;;;;;;;9.37;6.10;;;2.00;74.10;;;;;;5006123;28;20291;-86
2022/03/23 03:46:10;;;;;;;8.60;5.90;;;1.90;74.60;;;;;;5015528;28;20289;-86
2022/03/23 03:48:39;;;;;;;8.53;6.03;;;1.90;76.00;;;;;;5006487;28;20330;-86
2022/03/23 03:51:06;;;;;;;8.83;6.00;;;1.80;76.20;;;;;;5006798;28;20199;-86
2022/03/23 03:53:36;;;;;;;9.23;5.83;;;1.80;75.90;;;;;;5004714;28;20233;-86
2022/03/23 03:56:04;;;;;;;8.47;6.27;;;1.70;76.20;;;;;;5001527;28;20250;-86
2022/03/23 03:58:31;;;;;;;7.30;5.40;;;1.70;77.00;;;;;;4999984;28;20578;-86
2022/03/23 04:00:58;;;;;;;9.37;6.27;;;1.70;77.10;;;;;;5004334;28;20210;-86
2022/03/23 04:03:27;;;;;;;8.60;5.97;;;1.70;76.60;;;;;;5004886;28;20299;-88
2022/03/23 04:05:54;;;;;;;9.83;6.50;;;1.70;76.30;;;;;;5005443;28;20234;-86
2022/03/23 04:08:25;;;;;;;11.37;6.30;;;1.70;76.80;;;;;;4998165;28;20228;-86
2022/03/23 04:10:52;;;;;;;8.10;6.33;;;1.70;76.30;;;;;;4994169;28;20206;-86
2022/03/23 04:13:20;;;;;;;7.87;6.20;;;1.90;75.90;;;;;;5008164;28;20223;-86
2022/03/23 04:15:47;;;;;;;7.87;6.17;;;2.00;75.40;;;;;;5005534;28;20227;-86
2022/03/23 04:18:17;;;;;;;9.47;6.30;;;2.00;75.20;;;;;;5008648;28;20251;-86
2022/03/23 04:20:47;;;;;;;8.47;6.20;;;1.90;75.00;;;;;;4997900;28;20203;-86
2022/03/23 04:23:14;;;;;;;12.33;6.60;;;1.90;75.50;;;;;;5008584;28;20231;-86
2022/03/23 04:25:41;;;;;;;9.13;6.23;;;1.80;75.70;;;;;;5004447;28;20270;-86
2022/03/23 04:28:08;;;;;;;10.43;6.37;;;1.80;75.90;;;;;;5005071;28;20239;-86
2022/03/23 04:30:36;;;;;;;7.80;5.77;;;1.90;76.00;;;;;;5002468;28;20206;-86
2022/03/23 04:33:04;;;;;;;10.47;6.53;;;1.90;75.60;;;;;;5015005;28;20320;-86
2022/03/23 04:35:32;;;;;;;7.77;6.10;;;1.90;75.50;;;;;;5001122;28;20215;-85
2022/03/23 04:38:01;;;;;;;8.23;5.97;;;1.90;75.70;;;;;;5003565;28;20760;-86
2022/03/23 04:40:30;;;;;;;7.53;6.10;;;1.80;75.90;;;;;;5004089;28;20203;-86
2022/03/23 04:43:09;;;;;;;8.57;6.17;;;1.90;76.30;;;;;;5005107;28;20253;-86
2022/03/23 04:45:43;;;;;;;11.90;6.17;;;1.80;75.90;;;;;;5006808;28;20238;-86
2022/03/23 04:48:17;;;;;;;11.63;6.70;;;1.80;75.90;;;;;;5002787;28;20291;-86
2022/03/23 04:50:44;;;;;;;11.87;8.07;;;1.80;76.40;;;;;;5005364;28;20684;-86
2022/03/23 04:53:16;;;;;;;14.60;8.30;;;1.80;76.30;;;;;;5004960;28;20316;-86
2022/03/23 04:58:27;;;;;;;10.40;7.23;;;1.70;76.70;;;;;;5002898;28;20583;-87
2022/03/23 05:00:59;;;;;;;13.60;7.53;;;1.70;76.80;;;;;;5001562;28;20611;-87
2022/03/23 05:03:28;;;;;;;13.80;7.70;;;1.70;76.80;;;;;;4997977;28;20230;-88
2022/03/23 05:05:56;;;;;;;12.33;9.17;;;1.60;77.80;;;;;;5002124;28;20249;-86
2022/03/23 05:08:38;;;;;;;10.83;7.90;;;1.50;78.30;;;;;;4997144;28;20779;-85
2022/03/23 05:11:05;;;;;;;10.43;6.73;;;1.50;78.40;;;;;;5003646;28;20232;-85
2022/03/23 05:13:33;;;;;;;9.00;6.60;;;1.60;79.30;;;;;;4994864;28;20243;-85
2022/03/23 05:16:01;;;;;;;9.50;6.27;;;1.60;78.40;;;;;;4999362;28;20229;-85
2022/03/23 05:18:30;;;;;;;11.50;6.73;;;1.70;78.40;;;;;;5005235;28;20252;-87
2022/03/23 05:20:57;;;;;;;9.97;6.87;;;1.80;77.60;;;;;;4995862;28;20201;-86
2022/03/23 05:23:24;;;;;;;11.93;7.00;;;1.80;77.50;;;;;;5000503;28;20258;-86
2022/03/23 05:25:56;;;;;;;9.57;6.57;;;1.80;77.60;;;;;;5001242;28;20925;-86
2022/03/23 05:28:23;;;;;;;13.03;7.60;;;1.80;77.40;;;;;;5003221;28;20758;-87
2022/03/23 05:30:53;;;;;;;12.37;7.73;;;1.90;76.80;;;;;;5005768;28;20213;-87
2022/03/23 05:33:21;;;;;;;13.93;7.67;;;1.90;77.00;;;;;;5013567;28;20222;-89
2022/03/23 05:35:48;;;;;;;17.70;8.23;;;1.80;77.60;;;;;;5001650;28;20224;-87
2022/03/23 05:38:15;;;;;;;17.13;10.00;;;1.80;76.70;;;;;;5001853;28;20231;-87
2022/03/23 05:40:43;;;;;;;28.07;12.07;;;1.90;78.30;;;;;;4988933;28;20214;-87
2022/03/23 05:43:11;;;;;;;14.93;7.90;;;2.10;80.60;;;;;;4999567;28;20261;-87
2022/03/23 05:45:38;;;;;;;22.43;10.43;;;2.20;77.20;;;;;;5001384;28;20214;-86
2022/03/23 05:48:06;;;;;;;14.93;9.47;;;2.40;80.30;;;;;;5011711;28;20231;-88
2022/03/23 05:50:34;;;;;;;16.00;9.47;;;3.00;77.20;;;;;;4998741;28;20203;-88
2022/03/23 05:53:01;;;;;;;14.43;7.67;;;3.30;72.10;;;;;;5012573;28;20226;-89
2022/03/23 05:55:29;;;;;;;14.47;7.50;;;3.40;68.30;;;;;;4997643;28;20299;-90
2022/03/23 05:57:57;;;;;;;11.77;7.93;;;3.40;68.10;;;;;;5000942;28;20310;-88
2022/03/23 06:00:26;;;;;;;9.97;7.03;;;3.30;68.00;;;;;;4998815;28;20204;-89
2022/03/23 06:02:53;;;;;;;12.93;7.83;;;3.10;67.80;;;;;;5005978;28;20884;-86
2022/03/23 06:05:21;;;;;;;13.00;6.77;;;3.20;70.90;;;;;;5011686;28;20712;-87
2022/03/23 06:07:48;;;;;;;10.80;6.53;;;3.30;68.00;;;;;;5000101;28;20330;-85
2022/03/23 06:10:15;;;;;;;10.23;6.47;;;3.10;67.80;;;;;;5004106;28;20204;-87
2022/03/23 06:12:42;;;;;;;9.27;6.87;;;3.10;67.80;;;;;;4997368;28;20248;-88
2022/03/23 06:15:11;;;;;;;10.43;6.40;;;3.10;73.00;;;;;;5001227;28;20663;-87
2022/03/23 06:17:40;;;;;;;11.70;7.00;;;3.50;69.00;;;;;;5001708;28;20235;-87
2022/03/23 06:20:09;;;;;;;11.17;6.33;;;3.60;66.50;;;;;;5008725;28;20223;-87
2022/03/23 06:22:36;;;;;;;11.27;6.97;;;3.50;68.10;;;;;;4999462;28;20266;-87
2022/03/23 06:25:04;;;;;;;11.23;6.63;;;3.40;68.10;;;;;;5002246;28;20229;-87
2022/03/23 06:27:31;;;;;;;10.67;6.57;;;3.80;68.50;;;;;;5008823;28;20708;-89
2022/03/23 06:29:58;;;;;;;10.40;6.73;;;4.30;64.10;;;;;;5001534;28;20207;-88
2022/03/23 06:32:25;;;;;;;15.43;7.07;;;4.40;61.40;;;;;;4963336;28;20775;-88
2022/03/23 06:34:54;;;;;;;15.20;7.07;;;4.40;60.40;;;;;;5001690;28;20263;-91
2022/03/23 06:37:24;;;;;;;9.03;6.97;;;4.20;63.60;;;;;;5001674;28;20223;-86
2022/03/23 06:39:53;;;;;;;11.60;6.40;;;4.20;64.30;;;;;;5009962;28;20208;-87
2022/03/23 06:42:23;;;;;;;6.80;5.70;;;4.70;62.60;;;;;;4997838;28;20231;-86
2022/03/23 06:44:50;;;;;;;9.97;6.30;;;5.90;56.30;;;;;;5006173;28;20204;-89
2022/03/23 06:47:22;;;;;;;8.97;6.40;;;6.90;48.60;;;;;;4988289;28;20244;-91
2022/03/23 06:49:50;;;;;;;9.85;6.45;;;8.00;40.40;;;;;;4999088;28;20211;-92
2022/03/23 06:55:07;;;;;;;10.88;6.45;;;9.70;30.40;;;;;;4997128;28;20215;-91
2022/03/23 06:57:37;;;;;;;8.73;5.93;;;10.20;28.10;;;;;;5006647;28;20228;-89
2022/03/23 07:33:31;;;;;;;9.77;6.82;;;10.20;23.80;;;;;;5003969;28;20231;-90
2022/03/23 07:36:02;;;;;;;8.68;6.80;;;10.00;23.70;;;;;;5012036;28;20207;-90
2022/03/23 07:38:29;;;;;;;10.35;7.00;;;10.10;23.80;;;;;;5007098;28;20263;-89
2022/03/23 07:40:56;;;;;;;15.20;7.07;;;10.20;23.80;;;;;;5006268;28;20200;-89
2022/03/23 08:50:28;;;;;;;18.45;9.88;;;15.70;13.00;;;;;;5039793;28;20244;-90
2022/03/23 08:52:57;;;;;;;16.25;10.02;;;16.10;13.40;;;;;;5032818;28;20588;-91
2022/03/23 08:55:25;;;;;;;13.35;10.30;;;16.40;11.50;;;;;;5038207;28;20285;-90
2022/03/23 08:57:53;;;;;;;11.75;10.40;;;17.10;10.50;;;;;;5033938;28;20233;-90
2022/03/23 09:00:20;;;;;;;14.82;10.95;;;17.00;11.10;;;;;;5031960;28;20218;-91
2022/03/23 09:02:49;;;;;;;14.70;10.20;;;16.90;11.90;;;;;;5031106;28;20220;-91
2022/03/23 09:05:18;;;;;;;15.57;10.90;;;17.40;10.40;;;;;;5031691;28;20211;-90
2022/03/23 09:07:48;;;;;;;19.55;11.13;;;17.60;10.30;;;;;;5033775;28;20226;-88
2022/03/23 09:10:18;;;;;;;14.45;10.52;;;18.20;9.80;;;;;;5040161;28;20215;-89
2022/03/23 09:13:57;;;;;;;19.85;10.35;;;18.50;10.00;;;;;;5041035;28;20317;-89
2022/03/23 09:16:24;;;;;;;14.93;10.60;;;18.30;9.90;;;;;;5014635;28;20210;-88
2022/03/23 09:19:00;;;;;;;16.13;11.05;;;18.80;10.20;;;;;;5042283;28;20222;-87
2022/03/23 09:21:27;;;;;;;18.25;11.20;;;18.70;8.60;;;;;;5043252;28;20192;-87
2022/03/23 09:23:54;;;;;;;14.02;10.10;;;19.00;8.40;;;;;;5035041;28;20229;-87
2022/03/23 09:26:21;;;;;;;12.88;11.45;;;19.30;8.60;;;;;;5032553;28;20653;-85
2022/03/23 09:28:51;;;;;;;18.05;11.90;;;20.80;8.00;;;;;;5007576;28;20223;-87
2022/03/23 09:31:18;;;;;;;22.02;11.68;;;21.00;6.70;;;;;;4997574;28;20207;-85
2022/03/23 09:33:48;;;;;;;11.63;10.38;;;21.30;7.50;;;;;;5006189;28;20226;-84
2022/03/23 09:39:01;;;;;;;18.75;11.82;;;25.20;3.50;;;;;;5000784;28;20255;-83
2022/03/23 09:41:31;;;;;;;14.88;11.32;;;25.40;1.90;;;;;;5005584;28;20194;-83
2022/03/23 09:43:59;;;;;;;20.10;11.57;;;26.20;1.90;;;;;;4994553;28;20226;-83
2022/03/23 09:46:26;;;;;;;13.57;12.05;;;26.50;1.70;;;;;;5000746;28;20204;-82
2022/03/23 09:48:54;;;;;;;13.93;11.98;;;27.10;1.00;;;;;;4999581;28;20214;-85
2022/03/23 09:51:23;;;;;;;14.38;12.48;;;27.00;1.00;;;;;;4998616;28;20237;-84
2022/03/23 09:53:51;;;;;;;13.82;11.90;;;26.40;1.10;;;;;;5005687;28;20226;-84
2022/03/23 09:56:19;;;;;;;12.85;11.50;;;26.40;2.00;;;;;;5005085;28;20207;-85
2022/03/23 09:58:46;;;;;;;12.73;11.57;;;27.80;1.00;;;;;;5011516;28;20677;-85
2022/03/23 10:02:13;;;;;;;15.40;11.88;;;28.10;1.00;;;;;;5003068;28;20225;-85
2022/03/23 10:05:13;;;;;;;13.90;11.90;;;28.70;1.00;;;;;;5001299;28;20233;-84
2022/03/23 10:07:50;;;;;;;14.00;12.30;;;28.40;1.00;;;;;;5003975;28;20281;-85
2022/03/23 10:10:54;;;;;;;14.65;12.30;;;27.40;1.00;;;;;;5002715;28;20210;-85
2022/03/23 10:14:19;;;;;;;14.35;12.85;;;27.60;1.00;;;;;;5008275;28;20312;-84
2022/03/23 10:17:19;;;;;;;13.88;12.52;;;26.40;1.00;;;;;;5013075;28;20211;-86
2022/03/23 10:19:46;;;;;;;15.18;12.63;;;26.40;1.00;;;;;;4973767;28;20215;-86
2022/03/23 10:22:17;;;;;;;15.55;12.35;;;26.70;2.20;;;;;;5000355;28;20243;-87
2022/03/23 10:24:46;;;;;;;17.58;13.20;;;27.50;1.00;;;;;;5008662;28;20214;-85
2022/03/23 10:27:14;;;;;;;15.73;13.20;;;26.90;1.00;;;;;;5007603;28;20252;-85
2022/03/23 10:29:47;;;;;;;15.82;12.95;;;26.70;1.00;;;;;;5011286;28;20257;-86
2022/03/23 10:32:17;;;;;;;19.23;12.93;;;27.30;1.00;;;;;;5016675;28;20226;-84
2022/03/23 10:34:47;;;;;;;15.70;12.52;;;26.20;1.00;;;;;;5018096;28;20199;-84
2022/03/23 10:37:16;;;;;;;13.48;12.27;;;25.00;2.00;;;;;;5019737;28;20289;-84
2022/03/23 10:39:48;;;;;;;17.77;12.60;;;24.90;3.10;;;;;;5024291;28;20227;-84
2022/03/23 10:42:17;;;;;;;14.57;12.43;;;25.10;2.10;;;;;;5005905;28;20214;-85
2022/03/23 10:44:46;;;;;;;18.95;12.73;;;25.70;2.50;;;;;;5018124;28;20225;-84
2022/03/23 10:47:25;;;;;;;17.65;13.25;;;25.90;1.00;;;;;;5013424;28;20222;-83
2022/03/23 10:49:52;;;;;;;14.05;12.63;;;25.90;1.40;;;;;;5019237;28;20183;-84
2022/03/23 10:52:21;;;;;;;16.85;12.30;;;25.00;1.00;;;;;;5012300;28;20301;-83
2022/03/23 10:54:57;;;;;;;16.80;12.82;;;24.10;2.70;;;;;;5012143;28;20210;-83
2022/03/23 10:57:48;;;;;;;19.23;12.00;;;24.30;4.10;;;;;;5008719;28;20249;-84
2022/03/23 11:00:17;;;;;;;14.50;12.32;;;24.40;3.50;;;;;;5011782;28;20230;-84
2022/03/23 11:02:48;;;;;;;15.70;12.98;;;24.50;3.50;;;;;;5008537;28;20725;-84
2022/03/23 11:05:31;;;;;;;13.90;12.35;;;25.10;2.60;;;;;;5014422;28;20549;-84
2022/03/23 11:08:08;;;;;;;13.73;12.07;;;25.30;1.30;;;;;;5009351;28;20227;-84
2022/03/23 11:16:13;;;;;;;14.15;12.85;;;24.90;3.00;;;;;;5011545;28;20217;-84
2022/03/23 11:18:40;;;;;;;14.38;12.88;;;23.80;3.70;;;;;;5012373;28;20250;-85
2022/03/23 11:21:08;;;;;;;13.65;12.25;;;22.80;4.60;;;;;;5019406;28;20227;-85
2022/03/23 11:23:36;;;;;;;14.50;12.00;;;22.30;4.80;;;;;;5013269;28;20302;-88
2022/03/23 17:55:20;;;;;;;14.40;8.38;;;13.50;10.10;;;;;;4878967;29;20234;-90
2022/03/23 18:08:46;;;;;;;;;;;;;;;;;;;;;
2022/03/23 18:40:10;;;;;;;13.13;7.07;;;11.80;13.90;;;;;;4959911;28;20234;-87
2022/03/23 18:42:58;;;;;;;10.98;6.38;;;11.80;15.00;;;;;;5010131;28;20258;-88
2022/03/23 18:57:51;;;;;;;14.88;6.50;;;11.70;16.80;;;;;;5011090;28;20226;-88
2022/03/23 19:12:58;;;;;;;17.80;10.27;;;11.30;16.60;;;;;;4920982;29;20237;-88
2022/03/23 19:15:40;;;;;;;18.35;10.10;;;11.20;17.90;;;;;;4947994;29;20260;-89
2022/03/23 19:18:28;;;;;;;17.13;10.32;;;11.20;17.90;;;;;;4944213;29;20236;-87
2022/03/23 19:20:56;;;;;;;26.30;14.20;;;11.30;17.70;;;;;;4990202;28;20226;-89
2022/03/23 19:23:46;;;;;;;24.63;15.95;;;11.30;17.50;;;;;;5031932;28;20254;-88
2022/03/23 19:29:03;;;;;;;14.52;9.43;;;11.20;17.90;;;;;;5024520;28;20224;-88
2022/03/23 19:31:32;;;;;;;17.88;8.77;;;11.10;18.10;;;;;;4999407;28;20267;-88
2022/03/23 19:33:59;;;;;;;24.20;15.32;;;11.10;18.10;;;;;;5025769;28;20230;-89
2022/03/23 19:36:28;;;;;;;20.00;12.07;;;11.10;18.00;;;;;;5008606;28;20235;-88
2022/03/23 19:38:58;;;;;;;16.02;10.10;;;10.80;18.30;;;;;;5001745;28;20235;-88
2022/03/23 19:44:24;;;;;;;16.85;9.65;;;10.70;19.70;;;;;;5016458;28;20294;-88
2022/03/23 19:47:00;;;;;;;16.98;9.95;;;10.80;19.30;;;;;;5017892;28;20258;-88
2022/03/23 19:49:33;;;;;;;16.08;9.45;;;10.70;18.70;;;;;;5006020;28;20222;-88
2022/03/23 19:52:09;;;;;;;25.25;15.15;;;10.70;18.50;;;;;;5018645;28;20211;-89
2022/03/23 19:54:39;;;;;;;20.77;13.05;;;10.60;18.50;;;;;;5016674;28;20206;-88
2022/03/23 20:03:04;;;;;;;25.48;16.92;;;10.40;20.10;;;;;;5005407;28;20286;-89
2022/03/23 20:05:32;;;;;;;26.88;14.20;;;10.20;19.90;;;;;;4996751;28;20212;-90
2022/03/23 20:08:02;;;;;;;24.02;13.75;;;10.20;20.00;;;;;;4993400;28;20257;-89
2022/03/23 20:10:56;;;;;;;40.05;23.98;;;10.10;21.20;;;;;;5011760;28;20198;-89
2022/03/23 20:19:00;;;;;;;32.90;17.58;;;9.90;22.90;;;;;;5005285;28;20270;-90
2022/03/23 20:24:42;;;;;;;29.90;16.90;;;9.80;24.90;;;;;;5025722;28;20234;-91
2022/03/23 20:32:35;;;;;;;24.02;13.13;;;9.20;24.50;;;;;;5014416;28;20223;-88
2022/03/23 20:40:29;;;;;;;26.83;14.45;;;9.00;24.30;;;;;;5021130;28;20277;-89
2022/03/23 20:46:00;;;;;;;26.25;12.05;;;8.80;25.60;;;;;;5026401;28;20599;-88
2022/03/23 20:48:29;;;;;;;21.48;12.00;;;8.80;26.50;;;;;;5025532;28;20219;-88
2022/03/23 20:50:58;;;;;;;21.58;11.48;;;8.70;26.00;;;;;;5027055;28;20196;-88
2022/03/23 20:53:27;;;;;;;20.30;11.52;;;8.70;26.00;;;;;;5024649;28;20236;-88
2022/03/23 20:55:58;;;;;;;21.10;11.60;;;8.60;26.10;;;;;;5030831;28;20237;-88
2022/03/23 20:58:26;;;;;;;21.90;11.95;;;8.60;27.20;;;;;;5012048;28;20304;-88
2022/03/23 21:01:05;;;;;;;20.02;11.80;;;8.50;27.80;;;;;;5027126;28;20261;-87
2022/03/23 21:03:33;;;;;;;17.58;11.45;;;8.50;26.40;;;;;;5028309;28;20233;-88
2022/03/23 21:06:00;;;;;;;19.77;11.88;;;8.50;27.50;;;;;;5008034;28;20223;-88
2022/03/23 21:11:10;;;;;;;19.77;11.47;;;8.40;27.60;;;;;;5025786;28;20259;-89
2022/03/23 21:13:43;;;;;;;22.57;11.53;;;8.30;30.40;;;;;;5026403;28;20246;-88
2022/03/23 21:16:12;;;;;;;19.50;11.80;;;8.10;30.60;;;;;;5030347;28;20226;-88
2022/03/23 21:18:41;;;;;;;22.07;11.47;;;7.90;29.50;;;;;;5025011;28;20290;-87
2022/03/23 21:21:09;;;;;;;23.43;12.20;;;7.80;29.90;;;;;;5035411;28;20249;-88
2022/03/23 21:23:36;;;;;;;19.80;11.23;;;7.90;30.00;;;;;;5020869;28;20241;-88
2022/03/23 21:26:04;;;;;;;18.83;11.50;;;8.00;30.00;;;;;;5009938;28;20199;-88
2022/03/23 21:28:31;;;;;;;22.13;11.70;;;8.00;30.00;;;;;;5006422;28;20282;-88
2022/03/23 21:31:00;;;;;;;22.03;11.17;;;8.00;30.00;;;;;;5019301;28;20800;-88
2022/03/23 21:36:13;;;;;;;17.13;11.13;;;7.90;31.60;;;;;;5023020;28;20213;-88
2022/03/23 21:38:40;;;;;;;16.50;10.50;;;7.80;32.00;;;;;;5034014;28;20238;-88
2022/03/23 21:41:08;;;;;;;19.47;10.30;;;7.70;32.20;;;;;;5028502;28;20223;-88
2022/03/23 21:43:38;;;;;;;18.37;10.20;;;7.70;32.90;;;;;;5023804;28;20257;-88
2022/03/23 21:46:07;;;;;;;17.23;9.40;;;7.70;32.60;;;;;;5015056;28;20254;-88
2022/03/23 21:48:41;;;;;;;21.97;11.40;;;7.60;32.20;;;;;;5023624;28;20250;-88
2022/03/23 21:51:11;;;;;;;15.90;10.37;;;7.50;33.10;;;;;;5000126;28;20195;-87
2022/03/23 21:53:39;;;;;;;17.73;9.40;;;7.50;33.10;;;;;;5026224;28;20310;-88
2022/03/23 21:56:07;;;;;;;18.97;10.07;;;7.40;33.40;;;;;;5022630;28;20231;-88
2022/03/23 21:58:37;;;;;;;15.73;10.37;;;7.40;33.00;;;;;;5021971;28;20246;-88
2022/03/23 22:01:04;;;;;;;15.37;10.80;;;7.40;33.50;;;;;;5026221;28;20226;-87
2022/03/23 22:03:36;;;;;;;15.73;10.10;;;7.40;33.70;;;;;;5024162;28;20231;-88
2022/03/23 22:06:06;;;;;;;20.10;10.00;;;7.30;34.70;;;;;;5027525;28;20237;-89
2022/03/23 22:08:34;;;;;;;15.13;9.67;;;7.20;35.40;;;;;;5013344;28;20262;-88
2022/03/23 22:11:01;;;;;;;16.17;10.03;;;7.10;36.00;;;;;;5021153;28;20267;-88
2022/03/23 22:13:28;;;;;;;14.33;9.40;;;7.10;36.10;;;;;;5032572;28;20287;-88
2022/03/23 22:15:59;;;;;;;18.73;10.03;;;7.00;36.10;;;;;;5022772;28;20214;-88
2022/03/23 22:18:29;;;;;;;17.77;9.50;;;7.10;36.80;;;;;;5010465;28;20230;-87
2022/03/23 22:21:03;;;;;;;14.37;9.83;;;7.10;37.20;;;;;;5012491;28;20230;-89
2022/03/23 22:23:32;;;;;;;19.87;10.17;;;7.00;37.00;;;;;;5016668;28;20228;-88
2022/03/23 22:25:59;;;;;;;14.97;9.97;;;7.00;38.50;;;;;;5020091;28;20200;-88
2022/03/23 22:28:27;;;;;;;15.43;9.77;;;6.90;37.30;;;;;;5021242;28;20293;-89
2022/03/23 22:30:54;;;;;;;15.30;9.50;;;6.90;37.90;;;;;;5023044;28;20264;-88
2022/03/23 22:33:21;;;;;;;12.97;8.70;;;6.80;38.20;;;;;;5019163;28;20646;-89
2022/03/23 22:35:49;;;;;;;17.13;9.33;;;6.80;38.20;;;;;;5003154;28;20981;-89
2022/03/23 22:38:16;;;;;;;13.90;9.20;;;6.80;38.70;;;;;;5019020;28;20226;-88
2022/03/23 22:40:44;;;;;;;14.13;9.17;;;6.70;39.00;;;;;;5019562;28;20210;-88
2022/03/23 22:43:17;;;;;;;18.87;8.97;;;6.70;39.20;;;;;;5003675;28;20246;-88
2022/03/23 22:45:44;;;;;;;13.57;8.83;;;6.60;40.40;;;;;;5004902;28;21444;-87
2022/03/23 22:48:14;;;;;;;12.17;8.33;;;6.50;41.30;;;;;;5016998;28;20246;-88
2022/03/23 22:50:41;;;;;;;19.07;8.50;;;6.60;41.40;;;;;;4983153;28;21192;-89
2022/03/23 22:53:08;;;;;;;16.53;8.47;;;6.50;42.80;;;;;;5016214;28;20223;-88
2022/03/23 22:55:36;;;;;;;18.47;9.00;;;6.50;42.10;;;;;;5023647;28;20203;-89
2022/03/23 22:58:05;;;;;;;18.27;8.40;;;6.40;43.00;;;;;;5007798;28;20329;-89
2022/03/23 23:01:15;;;;;;;14.53;8.57;;;6.40;43.00;;;;;;5013805;28;20214;-86
2022/03/23 23:03:43;;;;;;;15.27;8.93;;;6.30;45.30;;;;;;5023904;28;20235;-86
2022/03/23 23:06:16;;;;;;;19.53;8.93;;;6.20;45.30;;;;;;5020950;28;20276;-87
2022/03/23 23:08:49;;;;;;;14.23;9.07;;;6.20;45.30;;;;;;5025381;28;20787;-86
2022/03/23 23:11:19;;;;;;;14.17;8.20;;;6.10;45.20;;;;;;4997449;28;20211;-87
2022/03/23 23:13:49;;;;;;;15.13;8.23;;;6.10;45.20;;;;;;5032458;28;20231;-87
2022/03/23 23:16:17;;;;;;;12.57;8.63;;;6.00;45.10;;;;;;5031756;28;20215;-87
2022/03/23 23:18:44;;;;;;;14.40;8.47;;;6.00;45.10;;;;;;5030812;28;20303;-87
2022/03/23 23:21:12;;;;;;;14.20;7.90;;;6.00;45.10;;;;;;5030511;28;20247;-86